sensor_id;sensor_type;location;lat;lon;timestamp;P1;durP1;ratioP1;P2;durP2;ratioP2
75272;SDS011;63869;52.344;16.928;2023-03-17T07:37:39;13.35;;;6.65;;
75272;SDS011;63869;52.344;16.928;2023-03-17T07:40:05;18.20;;;7.38;;
75272;SDS011;63869;52.344;16.928;2023-03-17T07:42:33;17.20;;;7.78;;
75272;SDS011;63869;52.344;16.928;2023-03-17T07:44:59;22.65;;;8.27;;
75272;SDS011;63869;52.344;16.928;2023-03-17T07:47:24;15.77;;;7.15;;
75272;SDS011;63869;52.344;16.928;2023-03-17T07:49:50;17.50;;;7.47;;
75272;SDS011;63869;52.344;16.928;2023-03-17T07:52:15;21.75;;;7.90;;
75272;SDS011;63869;52.344;16.928;2023-03-17T07:54:40;15.27;;;7.60;;
75272;SDS011;63869;52.344;16.928;2023-03-17T07:57:06;16.25;;;7.63;;
75272;SDS011;63869;52.344;16.928;2023-03-17T07:59:31;20.67;;;6.97;;
75272;SDS011;63869;52.344;16.928;2023-03-17T08:01:57;15.75;;;7.85;;
75272;SDS011;63869;52.344;16.928;2023-03-17T08:04:24;19.80;;;8.32;;
75272;SDS011;63869;52.344;16.928;2023-03-17T08:06:50;20.30;;;7.80;;
75272;SDS011;63869;52.344;16.928;2023-03-17T08:09:16;16.55;;;7.38;;
75272;SDS011;63869;52.344;16.928;2023-03-17T08:11:41;17.90;;;6.97;;
75272;SDS011;63869;52.344;16.928;2023-03-17T08:14:07;17.00;;;7.25;;
75272;SDS011;63869;52.344;16.928;2023-03-17T08:16:33;15.73;;;6.78;;
75272;SDS011;63869;52.344;16.928;2023-03-17T08:18:58;15.18;;;7.03;;
75272;SDS011;63869;52.344;16.928;2023-03-17T08:21:24;13.32;;;6.82;;
75272;SDS011;63869;52.344;16.928;2023-03-17T08:23:50;14.57;;;7.20;;
75272;SDS011;63869;52.344;16.928;2023-03-17T08:26:17;19.40;;;8.80;;
75272;SDS011;63869;52.344;16.928;2023-03-17T08:28:43;15.00;;;6.72;;
75272;SDS011;63869;52.344;16.928;2023-03-17T08:31:12;12.90;;;7.03;;
75272;SDS011;63869;52.344;16.928;2023-03-17T08:33:41;12.60;;;6.22;;
75272;SDS011;63869;52.344;16.928;2023-03-17T08:36:09;14.15;;;6.82;;
75272;SDS011;63869;52.344;16.928;2023-03-17T08:38:35;14.60;;;6.57;;
75272;SDS011;63869;52.344;16.928;2023-03-17T08:41:02;14.98;;;6.88;;
75272;SDS011;63869;52.344;16.928;2023-03-17T08:43:30;14.95;;;7.00;;
75272;SDS011;63869;52.344;16.928;2023-03-17T08:45:59;17.60;;;6.78;;
75272;SDS011;63869;52.344;16.928;2023-03-17T08:48:28;14.85;;;6.68;;
75272;SDS011;63869;52.344;16.928;2023-03-17T08:50:54;12.50;;;6.28;;
75272;SDS011;63869;52.344;16.928;2023-03-17T08:53:20;15.07;;;6.60;;
75272;SDS011;63869;52.344;16.928;2023-03-17T08:55:46;13.23;;;6.63;;
75272;SDS011;63869;52.344;16.928;2023-03-17T08:58:11;13.02;;;6.22;;
75272;SDS011;63869;52.344;16.928;2023-03-17T09:00:36;15.30;;;6.43;;
75272;SDS011;63869;52.344;16.928;2023-03-17T09:03:01;13.05;;;6.22;;
75272;SDS011;63869;52.344;16.928;2023-03-17T09:05:27;9.93;;;5.70;;
75272;SDS011;63869;52.344;16.928;2023-03-17T09:07:52;10.95;;;5.70;;
75272;SDS011;63869;52.344;16.928;2023-03-17T09:10:18;12.75;;;6.10;;
75272;SDS011;63869;52.344;16.928;2023-03-17T09:12:46;15.95;;;6.07;;
75272;SDS011;63869;52.344;16.928;2023-03-17T09:15:12;14.20;;;6.40;;
75272;SDS011;63869;52.344;16.928;2023-03-17T09:17:38;15.68;;;7.03;;
75272;SDS011;63869;52.344;16.928;2023-03-17T09:20:03;16.50;;;6.40;;
75272;SDS011;63869;52.344;16.928;2023-03-17T09:22:30;11.95;;;6.50;;
75272;SDS011;63869;52.344;16.928;2023-03-17T09:24:56;14.90;;;6.50;;
75272;SDS011;63869;52.344;16.928;2023-03-17T09:27:23;20.20;;;6.78;;
75272;SDS011;63869;52.344;16.928;2023-03-17T09:29:48;12.55;;;6.40;;
75272;SDS011;63869;52.344;16.928;2023-03-17T09:32:14;18.40;;;6.80;;
75272;SDS011;63869;52.344;16.928;2023-03-17T09:34:40;10.75;;;6.57;;
75272;SDS011;63869;52.344;16.928;2023-03-17T09:37:05;14.50;;;6.15;;
75272;SDS011;63869;52.344;16.928;2023-03-17T09:39:31;17.00;;;6.85;;
75272;SDS011;63869;52.344;16.928;2023-03-17T09:42:06;13.65;;;6.30;;
75272;SDS011;63869;52.344;16.928;2023-03-17T09:47:17;14.50;;;7.05;;
75272;SDS011;63869;52.344;16.928;2023-03-17T09:49:59;13.77;;;7.05;;
75272;SDS011;63869;52.344;16.928;2023-03-17T09:52:30;15.68;;;6.80;;
75272;SDS011;63869;52.344;16.928;2023-03-17T09:54:58;15.20;;;6.80;;
75272;SDS011;63869;52.344;16.928;2023-03-17T09:57:29;11.77;;;5.80;;
75272;SDS011;63869;52.344;16.928;2023-03-17T10:00:03;13.43;;;6.35;;
75272;SDS011;63869;52.344;16.928;2023-03-17T10:02:42;10.00;;;5.93;;
75272;SDS011;63869;52.344;16.928;2023-03-17T10:08:13;17.05;;;8.77;;
75272;SDS011;63869;52.344;16.928;2023-03-17T10:11:15;11.27;;;5.68;;
75272;SDS011;63869;52.344;16.928;2023-03-17T10:14:07;11.88;;;6.00;;
75272;SDS011;63869;52.344;16.928;2023-03-17T10:17:03;12.43;;;5.93;;
75272;SDS011;63869;52.344;16.928;2023-03-17T10:19:40;12.02;;;5.72;;
75272;SDS011;63869;52.344;16.928;2023-03-17T10:25:32;15.40;;;6.88;;
75272;SDS011;63869;52.344;16.928;2023-03-17T10:30:48;14.10;;;5.88;;
75272;SDS011;63869;52.344;16.928;2023-03-17T10:33:14;13.77;;;5.85;;
75272;SDS011;63869;52.344;16.928;2023-03-17T10:35:39;11.82;;;5.57;;
75272;SDS011;63869;52.344;16.928;2023-03-17T10:38:19;14.48;;;5.70;;
75272;SDS011;63869;52.344;16.928;2023-03-17T10:40:46;23.52;;;10.93;;
75272;SDS011;63869;52.344;16.928;2023-03-17T10:43:20;17.98;;;8.57;;
75272;SDS011;63869;52.344;16.928;2023-03-17T10:46:03;13.75;;;6.25;;
75272;SDS011;63869;52.344;16.928;2023-03-17T10:48:35;15.48;;;5.68;;
75272;SDS011;63869;52.344;16.928;2023-03-17T10:51:04;15.98;;;6.47;;
75272;SDS011;63869;52.344;16.928;2023-03-17T10:53:35;14.90;;;6.82;;
75272;SDS011;63869;52.344;16.928;2023-03-17T10:56:09;14.32;;;5.82;;
75272;SDS011;63869;52.344;16.928;2023-03-17T10:58:49;12.15;;;5.85;;
75272;SDS011;63869;52.344;16.928;2023-03-17T11:03:46;12.48;;;5.88;;
75272;SDS011;63869;52.344;16.928;2023-03-17T11:06:13;23.10;;;9.98;;
75272;SDS011;63869;52.344;16.928;2023-03-17T11:08:47;35.67;;;13.25;;
75272;SDS011;63869;52.344;16.928;2023-03-17T11:13:50;12.57;;;6.18;;
75272;SDS011;63869;52.344;16.928;2023-03-17T11:16:22;11.85;;;5.88;;
75272;SDS011;63869;52.344;16.928;2023-03-17T11:18:53;10.87;;;6.27;;
75272;SDS011;63869;52.344;16.928;2023-03-17T11:21:24;11.23;;;6.38;;
75272;SDS011;63869;52.344;16.928;2023-03-17T11:24:11;12.95;;;5.85;;
75272;SDS011;63869;52.344;16.928;2023-03-17T11:29:34;11.45;;;5.78;;
75272;SDS011;63869;52.344;16.928;2023-03-17T11:49:20;11.02;;;6.60;;
75272;SDS011;63869;52.344;16.928;2023-03-17T11:55:00;16.42;;;7.13;;
75272;SDS011;63869;52.344;16.928;2023-03-17T12:05:42;11.82;;;6.40;;
75272;SDS011;63869;52.344;16.928;2023-03-17T12:10:43;20.67;;;11.50;;
75272;SDS011;63869;52.344;16.928;2023-03-17T12:13:20;19.98;;;10.57;;
75272;SDS011;63869;52.344;16.928;2023-03-17T12:15:56;13.70;;;7.30;;
75272;SDS011;63869;52.344;16.928;2023-03-17T12:18:33;14.43;;;7.03;;
75272;SDS011;63869;52.344;16.928;2023-03-17T12:24:03;13.00;;;6.78;;
75272;SDS011;63869;52.344;16.928;2023-03-17T12:26:36;14.85;;;6.38;;
75272;SDS011;63869;52.344;16.928;2023-03-17T12:29:29;11.90;;;6.13;;
75272;SDS011;63869;52.344;16.928;2023-03-17T12:32:38;17.50;;;5.90;;
75272;SDS011;63869;52.344;16.928;2023-03-17T12:35:23;13.93;;;6.30;;
75272;SDS011;63869;52.344;16.928;2023-03-17T12:37:59;13.35;;;6.47;;
75272;SDS011;63869;52.344;16.928;2023-03-17T12:40:29;11.77;;;6.05;;
75272;SDS011;63869;52.344;16.928;2023-03-17T12:43:22;11.00;;;5.20;;
75272;SDS011;63869;52.344;16.928;2023-03-17T12:54:39;25.85;;;13.63;;
75272;SDS011;63869;52.344;16.928;2023-03-17T12:57:02;13.70;;;8.43;;
75272;SDS011;63869;52.344;16.928;2023-03-17T12:59:34;14.25;;;7.57;;
75272;SDS011;63869;52.344;16.928;2023-03-17T13:05:08;12.80;;;5.38;;
75272;SDS011;63869;52.344;16.928;2023-03-17T13:07:45;9.88;;;5.00;;
75272;SDS011;63869;52.344;16.928;2023-03-17T13:13:04;9.05;;;5.03;;
75272;SDS011;63869;52.344;16.928;2023-03-17T13:15:47;11.68;;;5.53;;
75272;SDS011;63869;52.344;16.928;2023-03-17T13:23:15;10.23;;;5.18;;
75272;SDS011;63869;52.344;16.928;2023-03-17T13:25:47;20.73;;;10.85;;
75272;SDS011;63869;52.344;16.928;2023-03-17T13:31:38;15.13;;;8.13;;
75272;SDS011;63869;52.344;16.928;2023-03-17T13:34:07;11.05;;;6.03;;
75272;SDS011;63869;52.344;16.928;2023-03-17T13:36:38;9.73;;;5.20;;
75272;SDS011;63869;52.344;16.928;2023-03-17T14:12:01;9.23;;;5.40;;
75272;SDS011;63869;52.344;16.928;2023-03-17T14:14:36;9.02;;;5.00;;
75272;SDS011;63869;52.344;16.928;2023-03-17T14:17:27;11.50;;;5.97;;
75272;SDS011;63869;52.344;16.928;2023-03-17T14:22:44;9.43;;;5.05;;
75272;SDS011;63869;52.344;16.928;2023-03-17T14:25:16;9.70;;;5.60;;
75272;SDS011;63869;52.344;16.928;2023-03-17T14:27:44;8.50;;;4.50;;
75272;SDS011;63869;52.344;16.928;2023-03-17T14:30:15;8.93;;;5.47;;
75272;SDS011;63869;52.344;16.928;2023-03-17T14:32:46;11.75;;;5.45;;
75272;SDS011;63869;52.344;16.928;2023-03-17T14:35:14;11.80;;;5.07;;
75272;SDS011;63869;52.344;16.928;2023-03-17T14:37:40;8.52;;;4.90;;
75272;SDS011;63869;52.344;16.928;2023-03-17T14:40:24;11.00;;;5.50;;
75272;SDS011;63869;52.344;16.928;2023-03-17T14:42:51;11.00;;;5.25;;
75272;SDS011;63869;52.344;16.928;2023-03-17T14:45:18;9.27;;;4.90;;
75272;SDS011;63869;52.344;16.928;2023-03-17T14:47:47;10.07;;;5.40;;
75272;SDS011;63869;52.344;16.928;2023-03-17T14:50:17;10.77;;;5.68;;
75272;SDS011;63869;52.344;16.928;2023-03-17T14:52:52;9.93;;;5.20;;
75272;SDS011;63869;52.344;16.928;2023-03-17T14:55:18;9.57;;;5.30;;
75272;SDS011;63869;52.344;16.928;2023-03-17T14:57:47;9.25;;;5.10;;
75272;SDS011;63869;52.344;16.928;2023-03-17T15:02:59;13.63;;;5.20;;
75272;SDS011;63869;52.344;16.928;2023-03-17T15:05:39;13.60;;;7.75;;
75272;SDS011;63869;52.344;16.928;2023-03-17T15:11:01;9.77;;;5.28;;
75272;SDS011;63869;52.344;16.928;2023-03-17T15:13:28;10.52;;;6.43;;
75272;SDS011;63869;52.344;16.928;2023-03-17T15:16:05;9.95;;;5.10;;
75272;SDS011;63869;52.344;16.928;2023-03-17T15:18:38;9.02;;;4.85;;
75272;SDS011;63869;52.344;16.928;2023-03-17T15:21:03;8.88;;;5.13;;
75272;SDS011;63869;52.344;16.928;2023-03-17T15:23:44;10.45;;;5.35;;
75272;SDS011;63869;52.344;16.928;2023-03-17T15:26:22;10.93;;;5.38;;
75272;SDS011;63869;52.344;16.928;2023-03-17T15:28:52;9.00;;;5.07;;
75272;SDS011;63869;52.344;16.928;2023-03-17T15:31:17;9.43;;;5.28;;
75272;SDS011;63869;52.344;16.928;2023-03-17T15:33:47;10.80;;;4.93;;
75272;SDS011;63869;52.344;16.928;2023-03-17T15:36:14;8.20;;;5.00;;
75272;SDS011;63869;52.344;16.928;2023-03-17T15:38:41;8.48;;;5.10;;
75272;SDS011;63869;52.344;16.928;2023-03-17T15:41:06;8.32;;;4.55;;
75272;SDS011;63869;52.344;16.928;2023-03-17T15:43:31;10.25;;;4.85;;
75272;SDS011;63869;52.344;16.928;2023-03-17T15:45:59;11.70;;;4.90;;
75272;SDS011;63869;52.344;16.928;2023-03-17T15:48:29;8.15;;;4.60;;
75272;SDS011;63869;52.344;16.928;2023-03-17T15:50:56;9.80;;;4.90;;
75272;SDS011;63869;52.344;16.928;2023-03-17T15:53:24;9.45;;;4.80;;
75272;SDS011;63869;52.344;16.928;2023-03-17T15:55:49;9.80;;;5.43;;
75272;SDS011;63869;52.344;16.928;2023-03-17T15:58:15;8.60;;;4.93;;
75272;SDS011;63869;52.344;16.928;2023-03-17T16:00:40;7.72;;;4.75;;
75272;SDS011;63869;52.344;16.928;2023-03-17T16:05:40;8.63;;;4.50;;
75272;SDS011;63869;52.344;16.928;2023-03-17T16:08:12;9.85;;;4.60;;
75272;SDS011;63869;52.344;16.928;2023-03-17T16:10:38;9.65;;;4.72;;
75272;SDS011;63869;52.344;16.928;2023-03-17T16:13:03;9.77;;;4.90;;
75272;SDS011;63869;52.344;16.928;2023-03-17T16:15:30;9.70;;;4.85;;
75272;SDS011;63869;52.344;16.928;2023-03-17T16:17:57;10.75;;;5.68;;
75272;SDS011;63869;52.344;16.928;2023-03-17T16:20:25;14.52;;;6.57;;
75272;SDS011;63869;52.344;16.928;2023-03-17T16:22:57;13.82;;;5.10;;
75272;SDS011;63869;52.344;16.928;2023-03-17T16:25:29;11.77;;;6.93;;
75272;SDS011;63869;52.344;16.928;2023-03-17T16:27:57;9.45;;;5.65;;
75272;SDS011;63869;52.344;16.928;2023-03-17T16:30:26;12.50;;;6.05;;
75272;SDS011;63869;52.344;16.928;2023-03-17T16:32:53;10.60;;;5.90;;
75272;SDS011;63869;52.344;16.928;2023-03-17T16:35:22;15.10;;;6.07;;
75272;SDS011;63869;52.344;16.928;2023-03-17T16:37:49;9.02;;;5.30;;
75272;SDS011;63869;52.344;16.928;2023-03-17T16:40:28;9.63;;;4.80;;
75272;SDS011;63869;52.344;16.928;2023-03-17T16:42:58;14.65;;;6.65;;
75272;SDS011;63869;52.344;16.928;2023-03-17T16:45:25;13.32;;;5.85;;
75272;SDS011;63869;52.344;16.928;2023-03-17T16:47:53;13.80;;;5.72;;
75272;SDS011;63869;52.344;16.928;2023-03-17T16:50:21;12.85;;;6.47;;
75272;SDS011;63869;52.344;16.928;2023-03-17T16:52:49;12.70;;;7.03;;
75272;SDS011;63869;52.344;16.928;2023-03-17T16:55:15;10.73;;;6.07;;
75272;SDS011;63869;52.344;16.928;2023-03-17T16:57:42;10.80;;;5.43;;
75272;SDS011;63869;52.344;16.928;2023-03-17T17:00:12;10.80;;;6.07;;
75272;SDS011;63869;52.344;16.928;2023-03-17T17:02:43;11.88;;;5.78;;
75272;SDS011;63869;52.344;16.928;2023-03-17T17:05:16;12.40;;;6.10;;
75272;SDS011;63869;52.344;16.928;2023-03-17T17:07:46;16.10;;;8.63;;
75272;SDS011;63869;52.344;16.928;2023-03-17T17:10:13;15.48;;;6.20;;
75272;SDS011;63869;52.344;16.928;2023-03-17T17:12:40;11.38;;;5.47;;
75272;SDS011;63869;52.344;16.928;2023-03-17T17:15:06;13.75;;;6.25;;
75272;SDS011;63869;52.344;16.928;2023-03-17T17:17:33;14.00;;;5.90;;
75272;SDS011;63869;52.344;16.928;2023-03-17T17:19:59;12.80;;;5.85;;
75272;SDS011;63869;52.344;16.928;2023-03-17T17:22:26;11.88;;;6.57;;
75272;SDS011;63869;52.344;16.928;2023-03-17T17:24:52;11.65;;;6.30;;
75272;SDS011;63869;52.344;16.928;2023-03-17T17:27:17;12.52;;;6.25;;
75272;SDS011;63869;52.344;16.928;2023-03-17T17:29:43;11.18;;;6.10;;
75272;SDS011;63869;52.344;16.928;2023-03-17T17:32:08;11.60;;;6.00;;
75272;SDS011;63869;52.344;16.928;2023-03-17T17:34:33;11.82;;;6.00;;
75272;SDS011;63869;52.344;16.928;2023-03-17T17:36:59;14.60;;;6.10;;
75272;SDS011;63869;52.344;16.928;2023-03-17T17:39:25;14.60;;;6.75;;
75272;SDS011;63869;52.344;16.928;2023-03-17T17:41:54;13.80;;;6.32;;
75272;SDS011;63869;52.344;16.928;2023-03-17T17:44:20;12.70;;;6.60;;
75272;SDS011;63869;52.344;16.928;2023-03-17T17:46:46;16.40;;;7.00;;
75272;SDS011;63869;52.344;16.928;2023-03-17T17:49:11;18.20;;;6.95;;
75272;SDS011;63869;52.344;16.928;2023-03-17T17:51:37;14.60;;;6.80;;
75272;SDS011;63869;52.344;16.928;2023-03-17T17:54:02;12.93;;;6.38;;
75272;SDS011;63869;52.344;16.928;2023-03-17T17:56:28;15.13;;;6.50;;
75272;SDS011;63869;52.344;16.928;2023-03-17T17:58:53;15.00;;;5.72;;
75272;SDS011;63869;52.344;16.928;2023-03-17T18:01:18;15.98;;;6.70;;
75272;SDS011;63869;52.344;16.928;2023-03-17T18:03:46;12.70;;;5.90;;
75272;SDS011;63869;52.344;16.928;2023-03-17T18:06:12;14.18;;;5.75;;
75272;SDS011;63869;52.344;16.928;2023-03-17T18:08:39;12.30;;;6.43;;
75272;SDS011;63869;52.344;16.928;2023-03-17T18:11:04;15.80;;;6.50;;
75272;SDS011;63869;52.344;16.928;2023-03-17T18:13:30;12.07;;;6.13;;
75272;SDS011;63869;52.344;16.928;2023-03-17T18:15:55;13.18;;;6.07;;
75272;SDS011;63869;52.344;16.928;2023-03-17T18:18:21;14.10;;;5.80;;
75272;SDS011;63869;52.344;16.928;2023-03-17T18:20:46;13.15;;;6.03;;
75272;SDS011;63869;52.344;16.928;2023-03-17T18:23:12;10.40;;;6.18;;
75272;SDS011;63869;52.344;16.928;2023-03-17T18:25:37;13.00;;;5.78;;
75272;SDS011;63869;52.344;16.928;2023-03-17T18:28:03;13.90;;;5.68;;
75272;SDS011;63869;52.344;16.928;2023-03-17T18:30:29;13.43;;;6.28;;
75272;SDS011;63869;52.344;16.928;2023-03-17T18:32:59;16.40;;;6.32;;
75272;SDS011;63869;52.344;16.928;2023-03-17T18:35:28;13.93;;;6.13;;
75272;SDS011;63869;52.344;16.928;2023-03-17T18:37:54;15.90;;;6.18;;
75272;SDS011;63869;52.344;16.928;2023-03-17T18:40:21;11.77;;;6.13;;
75272;SDS011;63869;52.344;16.928;2023-03-17T18:42:47;14.52;;;6.38;;
75272;SDS011;63869;52.344;16.928;2023-03-17T18:45:12;15.45;;;6.35;;
75272;SDS011;63869;52.344;16.928;2023-03-17T18:47:38;14.95;;;6.45;;
75272;SDS011;63869;52.344;16.928;2023-03-17T18:50:05;15.40;;;6.78;;
75272;SDS011;63869;52.344;16.928;2023-03-17T18:52:32;16.42;;;6.97;;
75272;SDS011;63869;52.344;16.928;2023-03-17T18:55:00;12.95;;;6.18;;
75272;SDS011;63869;52.344;16.928;2023-03-17T18:57:26;18.00;;;8.65;;
75272;SDS011;63869;52.344;16.928;2023-03-17T18:59:51;19.73;;;9.63;;
75272;SDS011;63869;52.344;16.928;2023-03-17T19:02:17;21.95;;;9.00;;
75272;SDS011;63869;52.344;16.928;2023-03-17T19:04:43;21.70;;;9.52;;
75272;SDS011;63869;52.344;16.928;2023-03-17T19:07:11;18.95;;;9.50;;
75272;SDS011;63869;52.344;16.928;2023-03-17T19:09:37;20.60;;;9.07;;
75272;SDS011;63869;52.344;16.928;2023-03-17T19:12:03;22.45;;;9.05;;
75272;SDS011;63869;52.344;16.928;2023-03-17T19:14:31;22.02;;;9.57;;
75272;SDS011;63869;52.344;16.928;2023-03-17T19:16:57;19.50;;;9.35;;
75272;SDS011;63869;52.344;16.928;2023-03-17T19:19:22;20.90;;;9.32;;
75272;SDS011;63869;52.344;16.928;2023-03-17T19:21:48;24.77;;;9.32;;
75272;SDS011;63869;52.344;16.928;2023-03-17T19:24:14;20.40;;;9.55;;
75272;SDS011;63869;52.344;16.928;2023-03-17T19:26:39;22.55;;;9.55;;
75272;SDS011;63869;52.344;16.928;2023-03-17T19:29:04;20.55;;;10.30;;
75272;SDS011;63869;52.344;16.928;2023-03-17T19:31:33;20.33;;;9.52;;
75272;SDS011;63869;52.344;16.928;2023-03-17T19:33:59;23.38;;;9.35;;
75272;SDS011;63869;52.344;16.928;2023-03-17T19:36:24;19.15;;;8.68;;
75272;SDS011;63869;52.344;16.928;2023-03-17T19:38:49;21.38;;;9.65;;
75272;SDS011;63869;52.344;16.928;2023-03-17T19:41:15;20.00;;;9.40;;
75272;SDS011;63869;52.344;16.928;2023-03-17T19:43:40;20.67;;;9.73;;
75272;SDS011;63869;52.344;16.928;2023-03-17T19:46:06;26.48;;;10.15;;
75272;SDS011;63869;52.344;16.928;2023-03-17T19:48:31;31.42;;;10.80;;
75272;SDS011;63869;52.344;16.928;2023-03-17T19:50:57;23.02;;;9.82;;
75272;SDS011;63869;52.344;16.928;2023-03-17T19:53:24;21.38;;;10.25;;
75272;SDS011;63869;52.344;16.928;2023-03-17T19:55:49;25.50;;;10.60;;
75272;SDS011;63869;52.344;16.928;2023-03-17T19:58:15;27.58;;;11.57;;
75272;SDS011;63869;52.344;16.928;2023-03-17T20:00:40;24.40;;;10.98;;
75272;SDS011;63869;52.344;16.928;2023-03-17T20:03:05;24.02;;;10.73;;
75272;SDS011;63869;52.344;16.928;2023-03-17T20:05:31;29.27;;;11.27;;
75272;SDS011;63869;52.344;16.928;2023-03-17T20:07:56;31.20;;;11.00;;
75272;SDS011;63869;52.344;16.928;2023-03-17T20:10:22;27.58;;;11.80;;
75272;SDS011;63869;52.344;16.928;2023-03-17T20:12:47;23.33;;;10.52;;
75272;SDS011;63869;52.344;16.928;2023-03-17T20:15:13;24.85;;;11.38;;
75272;SDS011;63869;52.344;16.928;2023-03-17T20:17:40;28.73;;;10.63;;
75272;SDS011;63869;52.344;16.928;2023-03-17T20:20:06;23.23;;;10.40;;
75272;SDS011;63869;52.344;16.928;2023-03-17T20:22:33;22.80;;;10.48;;
75272;SDS011;63869;52.344;16.928;2023-03-17T20:24:58;27.23;;;11.55;;
75272;SDS011;63869;52.344;16.928;2023-03-17T20:27:24;29.55;;;10.82;;
75272;SDS011;63869;52.344;16.928;2023-03-17T20:29:50;25.08;;;10.45;;
75272;SDS011;63869;52.344;16.928;2023-03-17T20:32:15;23.42;;;10.75;;
75272;SDS011;63869;52.344;16.928;2023-03-17T20:34:41;23.23;;;11.20;;
75272;SDS011;63869;52.344;16.928;2023-03-17T20:37:08;27.27;;;9.98;;
75272;SDS011;63869;52.344;16.928;2023-03-17T20:39:34;27.17;;;10.82;;
75272;SDS011;63869;52.344;16.928;2023-03-17T20:42:00;25.25;;;10.00;;
75272;SDS011;63869;52.344;16.928;2023-03-17T20:44:28;29.80;;;10.70;;
75272;SDS011;63869;52.344;16.928;2023-03-17T20:46:53;28.65;;;10.80;;
75272;SDS011;63869;52.344;16.928;2023-03-17T20:49:18;26.73;;;10.95;;
75272;SDS011;63869;52.344;16.928;2023-03-17T20:51:44;27.88;;;10.57;;
75272;SDS011;63869;52.344;16.928;2023-03-17T20:54:10;26.48;;;11.02;;
75272;SDS011;63869;52.344;16.928;2023-03-17T20:56:36;25.40;;;10.90;;
75272;SDS011;63869;52.344;16.928;2023-03-17T20:59:02;25.15;;;11.20;;
75272;SDS011;63869;52.344;16.928;2023-03-17T21:01:29;24.88;;;10.93;;
75272;SDS011;63869;52.344;16.928;2023-03-17T21:03:58;23.48;;;10.95;;
75272;SDS011;63869;52.344;16.928;2023-03-17T21:06:23;29.00;;;11.00;;
75272;SDS011;63869;52.344;16.928;2023-03-17T21:08:50;26.65;;;11.05;;
75272;SDS011;63869;52.344;16.928;2023-03-17T21:11:17;25.15;;;11.23;;
75272;SDS011;63869;52.344;16.928;2023-03-17T21:13:44;27.88;;;11.02;;
